Share

Ashley, ND

2:31 AM CDT on April 23, 2014 (GMT -0500)
Eureka, South Dakota (KSDEUREK2) Elev 1871 ft | 45.77 °N, 99.62 °W | Change Station

Current weather conditions updated 4 minutes ago

Mostly Cloudy
Mostly Cloudy
51.5 °F
Feels Like 51.5 °F
N
13.0
Wind Variable Wind from East
Gusts 24.0 mph
Sunrise 6:37 AM
Sunset 8:35 PM
Moon Last Quarter

Today is forecast to be Cooler than yesterday. Windy, afternoon showers developing.

Pressure 29.67 in
Visibility 10.0 miles
Clouds Mostly Cloudy 11000 ft
Dew Point 40 °F
Humidity 64%
Rainfall 0.00 in
Snow Depth Not available.
UV 0 out of 16
Pollen 11.00 out of 12
Air Quality Not available.
Flu Activity Sporadic
METAR K7L2 230715Z AUTO 12022G33KT 10SM BKN110 12/02 A2967 RMK AO2 PWINO PNO

More Conditions Fewer Conditions

Pressure 29.67 in
Visibility 10.0 miles
Clouds Mostly Cloudy 11000 ft
Dew Point 40 °F
Humidity 64%
Rainfall 0.00 in
Snow Depth Not available.
UV 0 out of 16
Pollen 11.00 out of 12
Air Quality Not available.
Flu Activity Sporadic
METAR K7L2 230715Z AUTO 12022G33KT 10SM BKN110 12/02 A2967 RMK AO2 PWINO PNO

More Conditions Fewer Conditions

10-Day Weather Forecast

Almanac

Astronomy

Apr. 23, 2014 Rise Set
Actual Time 6:37 AM CDT 8:35 PM CDT
Civil Twilight 6:05 AM CDT 9:07 PM CDT
Nautical Twilight 5:25 AM CDT 9:47 PM CDT
Astronomical Twilight 4:42 AM CDT 10:30 PM CDT
Moon 3:30 AM CDT 2:26 PM CDT
Length of Visible Light 15h 02m
Length of Day
13h 58m
Tomorrow will be 3m 0s longer.
Last Quarter, 39% of the Moon is Illuminated
Today
Last Quarter
Apr 29
New
May 6
First Quarter
May 14
Full
May 21
Last Quarter

Today's Extremes

State Highs State Lows

Community

  • April Sunset
    April Sunset
  • Waiting..
    Waiting..
  • Sunset...
    Sunset...
  • Happy outdoor day
    Happy outdoor day
  • mystic afternoon....
    mystic afternoon....

WunderPhotos

Upload Photos

1,704,233 photos uploaded!

WunderBlogs® & News

By Dr. Jeff Masters
Director of Meteorology, Weather Underground
By Kari Strenfel
Meteorologist, Weather Underground
By Christopher C. Burt
Weather Historian, Weather Underground
April 23, 2014
April 22, 2014
April 22, 2014

Nearby

Snow Depth

Station Depth Elevation
No new snow has been reported.

Coastal Water Temperatures

Place Temperature
No Stations Reporting

Earthquake Activity

City Distance Mag. Time & Date
No recent earthquake activity has been reported nearby.
Minimum magnitude displayed is 2.5.

Nearby Weather Stations

Station Location Temp. Windchill Dew Point Humidity Wind Precip. Elev Updated Type
RAWS SAND LAKE SD, Longlake, SD 50 °F 43 °F 39 °F 66% ESE  at  23 mph 0.00 in / hr 2029 ft 1:15 AM CDT MADIS
Eureka, South Dakota, Eureka, SD 51.5 °F - 40 °F 64% East  at  13.0 mph 0.00 in / hr 1871 ft 2:27 AM CDT Normal

Show More Stations Show Fewer Stations

What do you think?

We're not finished. Please let us know what you like, what you don't like, and what you are still missing.